Saturday, May 26, 2018, 8:10 AM EDT
Back to Local

KOXB, Ocean City Municipal Airport

Location: Berlin, MD, United States Lat: 38.317
Local Time: 8:10 AM EDT (12:10 GMT) Lon: -75.117
Time Zone: US/Eastern Elev: 13 ft

Show me the last for .
Show Decoded

2018-05-26 07:53 METAR KOXB 261153Z AUTO 24011KT 10SM CLR 24/22 A2991 RMK AO2 SLP129 T02390222
                 10239 20217 53004 =
2018-05-26 06:53 METAR KOXB 261053Z AUTO 23010KT 10SM FEW110 23/22 A2991 RMK AO2 SLP128 T02280217
                 =
2018-05-26 05:53 METAR KOXB 260953Z AUTO 24009KT 10SM CLR 22/21 A2990 RMK AO2 SLP126 T02170211 =
2018-05-26 04:53 METAR KOXB 260853Z AUTO 24008KT 10SM CLR 22/21 A2990 RMK AO2 SLP125 T02220211
                 58008 =
2018-05-26 03:53 METAR KOXB 260753Z AUTO 23008KT 10SM CLR 22/21 A2991 RMK AO2 SLP126 T02220211 =
2018-05-26 02:53 METAR KOXB 260653Z AUTO 24008KT 10SM CLR 23/21 A2992 RMK AO2 SLP132 T02280211 =
2018-05-26 01:53 METAR KOXB 260553Z AUTO 23010KT 10SM CLR 23/22 A2992 RMK AO2 SLP133 T02280217
                 10228 20217 58010 =
2018-05-26 00:53 METAR KOXB 260453Z AUTO 22007KT 10SM CLR 22/21 A2994 RMK AO2 SLP137 T02220211
                 402670128 =
2018-05-25 23:53 METAR KOXB 260353Z AUTO 23006KT 10SM CLR 22/21 A2994 RMK AO2 SLP139 T02170211 =
2018-05-25 22:53 METAR KOXB 260253Z AUTO 22008KT 10SM CLR 22/21 A2995 RMK AO2 SLP143 T02170206
                 56004 =
2018-05-25 21:53 METAR KOXB 260153Z AUTO 22008KT 10SM CLR 22/20 A2996 RMK AO2 SLP145 T02170200 =
2018-05-25 20:53 METAR KOXB 260053Z AUTO 22012KT 10SM CLR 22/19 A2996 RMK AO2 SLP144 T02220194 =
2018-05-25 19:53 METAR KOXB 252353Z AUTO 22012G19KT 10SM CLR 23/19 A2997 RMK AO2 SLP147 T02280189
                 10261 20228 56006 =
2018-05-25 18:53 METAR KOXB 252253Z AUTO 22011G19KT 10SM CLR 24/19 A2997 RMK AO2 SLP147 T02390189
                 =
2018-05-25 17:53 METAR KOXB 252153Z AUTO 22013G19KT 10SM CLR 24/18 A2997 RMK AO2 SLP148 T02440183
                 =
2018-05-25 16:53 METAR KOXB 252053Z AUTO 21014G19KT 10SM CLR 26/15 A2998 RMK AO2 SLP153 T02560150
                 56018 =
2018-05-25 15:53 METAR KOXB 251953Z AUTO 20010G17KT 10SM CLR 26/18 A3000 RMK AO2 SLP157 T02560178
                 =
2018-05-25 14:53 METAR KOXB 251853Z AUTO 20010G18KT 10SM CLR 26/19 A3002 RMK AO2 SLP164 T02560189
                 =
2018-05-25 13:53 METAR KOXB 251753Z AUTO 20010KT 10SM CLR 25/19 A3004 RMK AO2 SLP171 T02500194
                 10267 20211 58019 =
2018-05-25 12:53 METAR KOXB 251653Z AUTO VRB06KT 10SM CLR 24/21 A3006 RMK AO2 SLP178 T02440206 =
2018-05-25 11:53 METAR KOXB 251553Z AUTO 19006KT 10SM CLR 25/19 A3008 RMK AO2 SLP187 T02500194 =
2018-05-25 10:53 METAR KOXB 251453Z AUTO VRB05KT 10SM CLR 24/20 A3009 RMK AO2 SLP190 T02440200
                 58012 =
2018-05-25 09:53 METAR KOXB 251353Z AUTO 23007KT 10SM CLR 24/18 A3011 RMK AO2 SLP196 T02440183 =
2018-05-25 08:53 METAR KOXB 251253Z AUTO 23006KT 10SM CLR 23/18 A3013 RMK AO2 SLP201 T02280183 =

Support USWX by starting your Amazon purchase here.